This is the latest recevied weather packets stored in our database for station/object SQ9SMC-13. If no packets are shown the sender has not sent any weather packets the latest 10 day(s).
| Time | Temp. | Humidity | Pressure | Rain* | Wind** | Luminosity | Snow |
|---|---|---|---|---|---|---|---|
| 1777844103 | 15.56° C | 47% | 1017.4 hPa | 0 mm | - | 0 W/m² | - |
| 1777843802 | 15.56° C | 46% | 1017.4 hPa | 0 mm | - | 0 W/m² | - |
| 1777843504 | 15.56° C | 46% | 1017.4 hPa | 0 mm | - | 0 W/m² | - |
| 1777843204 | 15.56° C | 46% | 1017.4 hPa | 0 mm | - | 0 W/m² | - |
| 1777842903 | 15.56° C | 47% | 1017.3 hPa | 0 mm | - | 0 W/m² | - |
| 1777842604 | 15.56° C | 47% | 1017.5 hPa | 0 mm | - | 0 W/m² | - |
| 1777842305 | 15.56° C | 47% | 1017.4 hPa | 0 mm | - | 0 W/m² | - |
| 1777842004 | 15° C | 49% | 1017.3 hPa | 0 mm | - | 0 W/m² | - |
| 1777841704 | 14.44° C | 51% | 1017.4 hPa | 0 mm | - | 0 W/m² | - |
| 1777841404 | 13.33° C | 56% | 1017.6 hPa | 0 mm | - | 0 W/m² | - |
| 1777841104 | 12.78° C | 58% | 1017.7 hPa | 0 mm | - | 0 W/m² | - |
| 1777840803 | 11.67° C | 64% | 1017.5 hPa | 0 mm | - | 0 W/m² | - |
| 1777840504 | 10° C | 73% | 1017.5 hPa | 0 mm | - | 0 W/m² | - |
| 1777840203 | 9.44° C | 76% | 1017.7 hPa | 0 mm | - | 0 W/m² | - |
| 1777839903 | 9.44° C | 75% | 1017.6 hPa | 0 mm | - | 0 W/m² | - |
| 1777839603 | 9.44° C | 74% | 1017.3 hPa | 0 mm | - | 0 W/m² | - |
| 1777839303 | 10° C | 74% | 1017.5 hPa | 0 mm | - | 0 W/m² | - |
| 1777839002 | 10° C | 73% | 1017.4 hPa | 0 mm | - | 0 W/m² | - |
| 1777838704 | 10° C | 73% | 1017.4 hPa | 0 mm | - | 0 W/m² | - |
| 1777838405 | 10° C | 73% | 1017.3 hPa | 0 mm | - | 0 W/m² | - |
| 1777838105 | 10° C | 71% | 1017.3 hPa | 0 mm | - | 0 W/m² | - |
| 1777837805 | 10.56° C | 70% | 1017.4 hPa | 0 mm | - | 0 W/m² | - |
| 1777837503 | 10.56° C | 69% | 1017.5 hPa | 0 mm | - | 0 W/m² | - |
| 1777837203 | 11.11° C | 67% | 1017.4 hPa | 0 mm | - | 0 W/m² | - |
| 1777836903 | 11.67° C | 66% | 1017.5 hPa | 0 mm | - | 0 W/m² | - |
* Rain latest hour (hover to see other rain measurements)
** Current wind speed in m/s (hover to see current wind gust speed)